sensor_id;sensor_type;location;lat;lon;timestamp;P1;durP1;ratioP1;P2;durP2;ratioP2
11807;SDS011;5961;42.640;23.380;2024-03-17T00:00:22;47.20;;;25.33;;
11807;SDS011;5961;42.640;23.380;2024-03-17T00:02:49;50.43;;;25.33;;
11807;SDS011;5961;42.640;23.380;2024-03-17T00:05:16;48.73;;;25.53;;
11807;SDS011;5961;42.640;23.380;2024-03-17T00:07:43;52.23;;;27.20;;
11807;SDS011;5961;42.640;23.380;2024-03-17T00:10:09;58.70;;;27.43;;
11807;SDS011;5961;42.640;23.380;2024-03-17T00:12:36;51.57;;;27.77;;
11807;SDS011;5961;42.640;23.380;2024-03-17T00:15:03;50.33;;;27.47;;
11807;SDS011;5961;42.640;23.380;2024-03-17T00:17:30;56.67;;;29.17;;
11807;SDS011;5961;42.640;23.380;2024-03-17T00:19:56;52.43;;;27.53;;
11807;SDS011;5961;42.640;23.380;2024-03-17T00:22:24;52.20;;;28.30;;
11807;SDS011;5961;42.640;23.380;2024-03-17T00:24:50;58.30;;;27.50;;
11807;SDS011;5961;42.640;23.380;2024-03-17T00:27:16;54.73;;;28.30;;
11807;SDS011;5961;42.640;23.380;2024-03-17T00:29:42;54.80;;;28.47;;
11807;SDS011;5961;42.640;23.380;2024-03-17T00:32:09;54.50;;;29.00;;
11807;SDS011;5961;42.640;23.380;2024-03-17T00:34:36;57.27;;;28.67;;
11807;SDS011;5961;42.640;23.380;2024-03-17T00:37:03;55.73;;;28.40;;
11807;SDS011;5961;42.640;23.380;2024-03-17T00:39:30;57.93;;;28.47;;
11807;SDS011;5961;42.640;23.380;2024-03-17T00:41:57;55.03;;;29.20;;
11807;SDS011;5961;42.640;23.380;2024-03-17T00:44:23;58.13;;;28.00;;
11807;SDS011;5961;42.640;23.380;2024-03-17T00:46:49;57.43;;;28.57;;
11807;SDS011;5961;42.640;23.380;2024-03-17T00:49:15;53.10;;;26.53;;
11807;SDS011;5961;42.640;23.380;2024-03-17T00:51:42;53.63;;;26.47;;
11807;SDS011;5961;42.640;23.380;2024-03-17T00:54:07;59.73;;;28.47;;
11807;SDS011;5961;42.640;23.380;2024-03-17T00:56:36;61.33;;;29.63;;
11807;SDS011;5961;42.640;23.380;2024-03-17T00:59:02;55.47;;;29.03;;
11807;SDS011;5961;42.640;23.380;2024-03-17T01:01:29;59.50;;;28.67;;
11807;SDS011;5961;42.640;23.380;2024-03-17T01:03:54;64.40;;;28.40;;
11807;SDS011;5961;42.640;23.380;2024-03-17T01:06:21;56.30;;;29.47;;
11807;SDS011;5961;42.640;23.380;2024-03-17T01:08:47;63.30;;;29.27;;
11807;SDS011;5961;42.640;23.380;2024-03-17T01:11:14;53.20;;;27.97;;
11807;SDS011;5961;42.640;23.380;2024-03-17T01:13:43;54.77;;;29.47;;
11807;SDS011;5961;42.640;23.380;2024-03-17T01:16:09;59.07;;;28.77;;
11807;SDS011;5961;42.640;23.380;2024-03-17T01:18:35;56.80;;;28.67;;
11807;SDS011;5961;42.640;23.380;2024-03-17T01:21:02;55.73;;;28.53;;
11807;SDS011;5961;42.640;23.380;2024-03-17T01:23:28;58.97;;;29.37;;
11807;SDS011;5961;42.640;23.380;2024-03-17T01:25:55;58.07;;;29.00;;
11807;SDS011;5961;42.640;23.380;2024-03-17T01:28:20;50.47;;;27.40;;
11807;SDS011;5961;42.640;23.380;2024-03-17T01:30:48;58.93;;;27.93;;
11807;SDS011;5961;42.640;23.380;2024-03-17T01:33:14;55.97;;;28.57;;
11807;SDS011;5961;42.640;23.380;2024-03-17T01:35:42;56.63;;;28.83;;
11807;SDS011;5961;42.640;23.380;2024-03-17T01:38:08;56.63;;;27.43;;
11807;SDS011;5961;42.640;23.380;2024-03-17T01:40:35;53.23;;;27.50;;
11807;SDS011;5961;42.640;23.380;2024-03-17T01:43:01;53.13;;;27.93;;
11807;SDS011;5961;42.640;23.380;2024-03-17T01:45:28;52.87;;;27.33;;
11807;SDS011;5961;42.640;23.380;2024-03-17T01:47:56;55.90;;;29.03;;
11807;SDS011;5961;42.640;23.380;2024-03-17T01:50:25;54.73;;;28.17;;
11807;SDS011;5961;42.640;23.380;2024-03-17T01:52:51;55.67;;;26.93;;
11807;SDS011;5961;42.640;23.380;2024-03-17T01:55:20;53.90;;;28.10;;
11807;SDS011;5961;42.640;23.380;2024-03-17T01:57:47;56.30;;;28.93;;
11807;SDS011;5961;42.640;23.380;2024-03-17T02:00:14;56.23;;;29.10;;
11807;SDS011;5961;42.640;23.380;2024-03-17T02:02:40;52.93;;;26.33;;
11807;SDS011;5961;42.640;23.380;2024-03-17T02:05:08;54.97;;;27.80;;
11807;SDS011;5961;42.640;23.380;2024-03-17T02:07:35;53.30;;;27.63;;
11807;SDS011;5961;42.640;23.380;2024-03-17T02:10:02;54.97;;;26.67;;
11807;SDS011;5961;42.640;23.380;2024-03-17T02:12:28;58.47;;;27.33;;
11807;SDS011;5961;42.640;23.380;2024-03-17T02:14:56;53.40;;;27.27;;
11807;SDS011;5961;42.640;23.380;2024-03-17T02:17:22;53.90;;;28.17;;
11807;SDS011;5961;42.640;23.380;2024-03-17T02:19:50;58.73;;;29.40;;
11807;SDS011;5961;42.640;23.380;2024-03-17T02:22:17;55.47;;;27.23;;
11807;SDS011;5961;42.640;23.380;2024-03-17T02:24:44;58.90;;;28.53;;
11807;SDS011;5961;42.640;23.380;2024-03-17T02:27:10;56.93;;;27.93;;
11807;SDS011;5961;42.640;23.380;2024-03-17T02:29:37;52.67;;;27.87;;
11807;SDS011;5961;42.640;23.380;2024-03-17T02:32:04;50.17;;;27.13;;
11807;SDS011;5961;42.640;23.380;2024-03-17T02:34:32;59.87;;;27.97;;
11807;SDS011;5961;42.640;23.380;2024-03-17T02:36:58;58.33;;;28.30;;
11807;SDS011;5961;42.640;23.380;2024-03-17T02:39:26;48.30;;;26.70;;
11807;SDS011;5961;42.640;23.380;2024-03-17T02:42:02;52.97;;;26.83;;
11807;SDS011;5961;42.640;23.380;2024-03-17T02:44:30;51.43;;;26.80;;
11807;SDS011;5961;42.640;23.380;2024-03-17T02:46:57;51.97;;;28.30;;
11807;SDS011;5961;42.640;23.380;2024-03-17T02:49:24;53.43;;;27.80;;
11807;SDS011;5961;42.640;23.380;2024-03-17T02:51:52;55.80;;;28.37;;
11807;SDS011;5961;42.640;23.380;2024-03-17T02:54:19;54.30;;;28.33;;
11807;SDS011;5961;42.640;23.380;2024-03-17T02:56:47;54.73;;;27.57;;
11807;SDS011;5961;42.640;23.380;2024-03-17T02:59:13;55.40;;;27.40;;
11807;SDS011;5961;42.640;23.380;2024-03-17T03:01:40;56.50;;;28.00;;
11807;SDS011;5961;42.640;23.380;2024-03-17T03:04:07;57.43;;;28.63;;
11807;SDS011;5961;42.640;23.380;2024-03-17T03:06:34;57.43;;;28.27;;
11807;SDS011;5961;42.640;23.380;2024-03-17T03:09:01;53.10;;;28.13;;
11807;SDS011;5961;42.640;23.380;2024-03-17T03:11:30;57.90;;;28.57;;
11807;SDS011;5961;42.640;23.380;2024-03-17T03:13:58;54.50;;;27.60;;
11807;SDS011;5961;42.640;23.380;2024-03-17T03:16:25;51.77;;;28.03;;
11807;SDS011;5961;42.640;23.380;2024-03-17T03:18:52;52.30;;;27.63;;
11807;SDS011;5961;42.640;23.380;2024-03-17T03:21:19;63.50;;;29.77;;
11807;SDS011;5961;42.640;23.380;2024-03-17T03:23:46;59.47;;;29.03;;
11807;SDS011;5961;42.640;23.380;2024-03-17T03:26:13;54.83;;;27.67;;
11807;SDS011;5961;42.640;23.380;2024-03-17T03:28:40;56.70;;;28.67;;
11807;SDS011;5961;42.640;23.380;2024-03-17T03:31:11;54.43;;;27.70;;
11807;SDS011;5961;42.640;23.380;2024-03-17T03:33:39;52.93;;;28.53;;
11807;SDS011;5961;42.640;23.380;2024-03-17T03:36:07;52.83;;;28.03;;
11807;SDS011;5961;42.640;23.380;2024-03-17T03:38:34;55.83;;;27.40;;
11807;SDS011;5961;42.640;23.380;2024-03-17T03:41:05;59.53;;;30.17;;
11807;SDS011;5961;42.640;23.380;2024-03-17T03:43:33;58.47;;;29.37;;
11807;SDS011;5961;42.640;23.380;2024-03-17T03:45:59;63.20;;;28.30;;
11807;SDS011;5961;42.640;23.380;2024-03-17T03:48:28;50.97;;;26.50;;
11807;SDS011;5961;42.640;23.380;2024-03-17T03:50:55;60.20;;;31.23;;
11807;SDS011;5961;42.640;23.380;2024-03-17T03:53:22;54.40;;;29.67;;
11807;SDS011;5961;42.640;23.380;2024-03-17T03:55:49;56.47;;;29.50;;
11807;SDS011;5961;42.640;23.380;2024-03-17T03:58:15;54.23;;;28.77;;
11807;SDS011;5961;42.640;23.380;2024-03-17T04:00:42;62.70;;;30.47;;
11807;SDS011;5961;42.640;23.380;2024-03-17T04:03:09;61.37;;;27.60;;
11807;SDS011;5961;42.640;23.380;2024-03-17T04:05:37;49.87;;;25.60;;
11807;SDS011;5961;42.640;23.380;2024-03-17T04:08:04;46.67;;;23.90;;
11807;SDS011;5961;42.640;23.380;2024-03-17T04:10:31;46.50;;;24.77;;
11807;SDS011;5961;42.640;23.380;2024-03-17T04:12:58;45.73;;;23.80;;
11807;SDS011;5961;42.640;23.380;2024-03-17T04:15:25;46.90;;;24.77;;
11807;SDS011;5961;42.640;23.380;2024-03-17T04:17:52;50.83;;;25.47;;
11807;SDS011;5961;42.640;23.380;2024-03-17T04:20:19;46.53;;;24.63;;
11807;SDS011;5961;42.640;23.380;2024-03-17T04:22:47;51.80;;;26.00;;
11807;SDS011;5961;42.640;23.380;2024-03-17T04:25:14;56.07;;;26.93;;
11807;SDS011;5961;42.640;23.380;2024-03-17T04:27:40;48.23;;;25.57;;
11807;SDS011;5961;42.640;23.380;2024-03-17T04:30:07;49.60;;;25.73;;
11807;SDS011;5961;42.640;23.380;2024-03-17T04:32:36;54.97;;;26.97;;
11807;SDS011;5961;42.640;23.380;2024-03-17T04:35:04;51.73;;;26.37;;
11807;SDS011;5961;42.640;23.380;2024-03-17T04:37:32;49.70;;;24.67;;
11807;SDS011;5961;42.640;23.380;2024-03-17T04:40:05;45.13;;;25.23;;
11807;SDS011;5961;42.640;23.380;2024-03-17T04:42:35;48.77;;;23.27;;
11807;SDS011;5961;42.640;23.380;2024-03-17T04:45:01;47.20;;;22.97;;
11807;SDS011;5961;42.640;23.380;2024-03-17T04:47:29;40.67;;;23.07;;
11807;SDS011;5961;42.640;23.380;2024-03-17T04:49:56;44.23;;;22.57;;
11807;SDS011;5961;42.640;23.380;2024-03-17T04:52:22;47.20;;;23.37;;
11807;SDS011;5961;42.640;23.380;2024-03-17T04:54:49;55.90;;;27.77;;
11807;SDS011;5961;42.640;23.380;2024-03-17T04:57:17;55.13;;;28.83;;
11807;SDS011;5961;42.640;23.380;2024-03-17T04:59:44;54.97;;;29.23;;
11807;SDS011;5961;42.640;23.380;2024-03-17T05:02:10;48.43;;;25.67;;
11807;SDS011;5961;42.640;23.380;2024-03-17T05:04:37;56.93;;;29.00;;
11807;SDS011;5961;42.640;23.380;2024-03-17T05:07:04;56.83;;;28.67;;
11807;SDS011;5961;42.640;23.380;2024-03-17T05:09:31;55.97;;;27.90;;
11807;SDS011;5961;42.640;23.380;2024-03-17T05:11:58;57.93;;;27.83;;
11807;SDS011;5961;42.640;23.380;2024-03-17T05:14:26;79.20;;;38.57;;
11807;SDS011;5961;42.640;23.380;2024-03-17T05:16:53;69.80;;;34.90;;
11807;SDS011;5961;42.640;23.380;2024-03-17T05:19:20;68.50;;;34.50;;
11807;SDS011;5961;42.640;23.380;2024-03-17T05:21:46;231.67;;;112.60;;
11807;SDS011;5961;42.640;23.380;2024-03-17T05:24:13;68.63;;;34.63;;
11807;SDS011;5961;42.640;23.380;2024-03-17T05:26:40;40.43;;;21.70;;
11807;SDS011;5961;42.640;23.380;2024-03-17T05:29:08;36.60;;;20.10;;
11807;SDS011;5961;42.640;23.380;2024-03-17T05:31:36;41.43;;;21.33;;
11807;SDS011;5961;42.640;23.380;2024-03-17T05:34:10;44.43;;;22.10;;
11807;SDS011;5961;42.640;23.380;2024-03-17T05:36:37;42.07;;;21.37;;
11807;SDS011;5961;42.640;23.380;2024-03-17T05:39:03;64.37;;;31.70;;
11807;SDS011;5961;42.640;23.380;2024-03-17T05:41:30;60.97;;;31.77;;
11807;SDS011;5961;42.640;23.380;2024-03-17T05:43:57;86.03;;;43.20;;
11807;SDS011;5961;42.640;23.380;2024-03-17T05:46:24;65.40;;;33.63;;
11807;SDS011;5961;42.640;23.380;2024-03-17T05:48:53;64.40;;;32.07;;
11807;SDS011;5961;42.640;23.380;2024-03-17T05:51:20;66.20;;;33.57;;
11807;SDS011;5961;42.640;23.380;2024-03-17T05:53:47;53.43;;;26.73;;
11807;SDS011;5961;42.640;23.380;2024-03-17T05:56:14;49.63;;;24.47;;
11807;SDS011;5961;42.640;23.380;2024-03-17T05:58:42;70.63;;;36.47;;
11807;SDS011;5961;42.640;23.380;2024-03-17T06:01:09;64.13;;;33.30;;
11807;SDS011;5961;42.640;23.380;2024-03-17T06:03:36;63.50;;;31.67;;
11807;SDS011;5961;42.640;23.380;2024-03-17T06:06:05;64.00;;;33.00;;
11807;SDS011;5961;42.640;23.380;2024-03-17T06:08:34;65.43;;;31.70;;
11807;SDS011;5961;42.640;23.380;2024-03-17T06:11:01;66.50;;;31.03;;
11807;SDS011;5961;42.640;23.380;2024-03-17T06:13:29;58.13;;;28.50;;
11807;SDS011;5961;42.640;23.380;2024-03-17T06:15:56;57.57;;;29.60;;
11807;SDS011;5961;42.640;23.380;2024-03-17T06:18:25;65.60;;;31.53;;
11807;SDS011;5961;42.640;23.380;2024-03-17T06:20:53;56.63;;;30.13;;
11807;SDS011;5961;42.640;23.380;2024-03-17T06:23:24;54.93;;;29.10;;
11807;SDS011;5961;42.640;23.380;2024-03-17T06:25:52;51.43;;;27.10;;
11807;SDS011;5961;42.640;23.380;2024-03-17T06:28:19;50.73;;;26.47;;
11807;SDS011;5961;42.640;23.380;2024-03-17T06:30:46;53.30;;;27.13;;
11807;SDS011;5961;42.640;23.380;2024-03-17T06:33:21;59.77;;;31.30;;
11807;SDS011;5961;42.640;23.380;2024-03-17T06:35:47;57.07;;;27.50;;
11807;SDS011;5961;42.640;23.380;2024-03-17T06:38:14;45.57;;;24.57;;
11807;SDS011;5961;42.640;23.380;2024-03-17T06:40:47;45.17;;;24.20;;
11807;SDS011;5961;42.640;23.380;2024-03-17T06:43:15;47.87;;;24.47;;
11807;SDS011;5961;42.640;23.380;2024-03-17T06:45:42;49.00;;;24.87;;
11807;SDS011;5961;42.640;23.380;2024-03-17T06:48:08;48.10;;;23.97;;
11807;SDS011;5961;42.640;23.380;2024-03-17T06:50:37;43.97;;;24.03;;
11807;SDS011;5961;42.640;23.380;2024-03-17T06:53:06;46.03;;;22.87;;
11807;SDS011;5961;42.640;23.380;2024-03-17T06:55:33;42.13;;;22.37;;
11807;SDS011;5961;42.640;23.380;2024-03-17T06:58:02;47.00;;;23.63;;
11807;SDS011;5961;42.640;23.380;2024-03-17T07:00:29;44.70;;;22.10;;
11807;SDS011;5961;42.640;23.380;2024-03-17T07:02:56;45.93;;;23.33;;
11807;SDS011;5961;42.640;23.380;2024-03-17T07:05:22;45.57;;;24.90;;
11807;SDS011;5961;42.640;23.380;2024-03-17T07:07:49;46.70;;;23.93;;
11807;SDS011;5961;42.640;23.380;2024-03-17T07:10:16;48.10;;;24.40;;
11807;SDS011;5961;42.640;23.380;2024-03-17T07:12:43;48.17;;;25.13;;
11807;SDS011;5961;42.640;23.380;2024-03-17T07:15:11;49.93;;;26.13;;
11807;SDS011;5961;42.640;23.380;2024-03-17T07:17:39;51.20;;;25.70;;
11807;SDS011;5961;42.640;23.380;2024-03-17T07:20:06;49.07;;;25.63;;
11807;SDS011;5961;42.640;23.380;2024-03-17T07:22:34;48.20;;;24.80;;
11807;SDS011;5961;42.640;23.380;2024-03-17T07:25:01;52.20;;;24.93;;
11807;SDS011;5961;42.640;23.380;2024-03-17T07:27:27;53.90;;;26.00;;
11807;SDS011;5961;42.640;23.380;2024-03-17T07:29:54;47.77;;;25.87;;
11807;SDS011;5961;42.640;23.380;2024-03-17T07:32:22;49.03;;;24.30;;
11807;SDS011;5961;42.640;23.380;2024-03-17T07:34:49;47.43;;;23.60;;
11807;SDS011;5961;42.640;23.380;2024-03-17T07:37:16;42.53;;;23.17;;
11807;SDS011;5961;42.640;23.380;2024-03-17T07:39:42;50.80;;;25.80;;
11807;SDS011;5961;42.640;23.380;2024-03-17T07:42:09;39.87;;;23.27;;
11807;SDS011;5961;42.640;23.380;2024-03-17T07:44:38;45.77;;;23.00;;
11807;SDS011;5961;42.640;23.380;2024-03-17T07:47:05;48.23;;;24.27;;
11807;SDS011;5961;42.640;23.380;2024-03-17T07:49:33;50.67;;;23.90;;
11807;SDS011;5961;42.640;23.380;2024-03-17T07:52:00;49.47;;;23.60;;
11807;SDS011;5961;42.640;23.380;2024-03-17T07:54:27;45.73;;;23.40;;
11807;SDS011;5961;42.640;23.380;2024-03-17T07:56:54;48.77;;;25.47;;
11807;SDS011;5961;42.640;23.380;2024-03-17T07:59:21;47.37;;;25.27;;
11807;SDS011;5961;42.640;23.380;2024-03-17T08:01:47;64.87;;;28.80;;
11807;SDS011;5961;42.640;23.380;2024-03-17T08:04:15;50.07;;;28.70;;
11807;SDS011;5961;42.640;23.380;2024-03-17T08:06:43;57.83;;;28.37;;
11807;SDS011;5961;42.640;23.380;2024-03-17T08:09:10;48.40;;;26.80;;
11807;SDS011;5961;42.640;23.380;2024-03-17T08:11:37;51.50;;;26.33;;
11807;SDS011;5961;42.640;23.380;2024-03-17T08:14:08;46.90;;;25.90;;
11807;SDS011;5961;42.640;23.380;2024-03-17T08:16:35;54.97;;;26.33;;
11807;SDS011;5961;42.640;23.380;2024-03-17T08:19:02;50.53;;;24.40;;
11807;SDS011;5961;42.640;23.380;2024-03-17T08:21:28;49.83;;;24.10;;
11807;SDS011;5961;42.640;23.380;2024-03-17T08:23:57;44.97;;;23.50;;
11807;SDS011;5961;42.640;23.380;2024-03-17T08:26:24;42.77;;;23.53;;
11807;SDS011;5961;42.640;23.380;2024-03-17T08:28:50;47.30;;;22.53;;
11807;SDS011;5961;42.640;23.380;2024-03-17T08:31:17;39.40;;;20.10;;
11807;SDS011;5961;42.640;23.380;2024-03-17T08:33:44;40.37;;;20.37;;
11807;SDS011;5961;42.640;23.380;2024-03-17T08:36:12;43.73;;;20.33;;
11807;SDS011;5961;42.640;23.380;2024-03-17T08:38:44;36.87;;;20.37;;
11807;SDS011;5961;42.640;23.380;2024-03-17T08:41:12;34.27;;;18.07;;
11807;SDS011;5961;42.640;23.380;2024-03-17T08:43:38;36.87;;;20.10;;
11807;SDS011;5961;42.640;23.380;2024-03-17T08:46:08;30.07;;;18.53;;
11807;SDS011;5961;42.640;23.380;2024-03-17T08:48:38;36.50;;;19.83;;
11807;SDS011;5961;42.640;23.380;2024-03-17T08:51:06;32.90;;;18.63;;
11807;SDS011;5961;42.640;23.380;2024-03-17T08:53:34;34.23;;;18.00;;
11807;SDS011;5961;42.640;23.380;2024-03-17T08:56:02;37.13;;;19.53;;
11807;SDS011;5961;42.640;23.380;2024-03-17T08:58:32;38.83;;;19.93;;
11807;SDS011;5961;42.640;23.380;2024-03-17T09:01:02;43.73;;;21.17;;
11807;SDS011;5961;42.640;23.380;2024-03-17T09:03:30;37.23;;;18.57;;
11807;SDS011;5961;42.640;23.380;2024-03-17T09:05:57;33.27;;;18.27;;
11807;SDS011;5961;42.640;23.380;2024-03-17T09:08:24;36.70;;;18.73;;
11807;SDS011;5961;42.640;23.380;2024-03-17T09:10:52;36.40;;;19.23;;
11807;SDS011;5961;42.640;23.380;2024-03-17T09:13:19;31.17;;;18.47;;
11807;SDS011;5961;42.640;23.380;2024-03-17T09:15:54;37.27;;;19.90;;
11807;SDS011;5961;42.640;23.380;2024-03-17T09:18:21;36.73;;;19.40;;
11807;SDS011;5961;42.640;23.380;2024-03-17T09:20:57;38.13;;;19.63;;
11807;SDS011;5961;42.640;23.380;2024-03-17T09:23:24;33.03;;;18.67;;
11807;SDS011;5961;42.640;23.380;2024-03-17T09:25:56;37.00;;;20.30;;
11807;SDS011;5961;42.640;23.380;2024-03-17T09:28:23;34.63;;;19.00;;
11807;SDS011;5961;42.640;23.380;2024-03-17T09:30:50;31.57;;;16.97;;
11807;SDS011;5961;42.640;23.380;2024-03-17T09:33:19;32.77;;;17.40;;
11807;SDS011;5961;42.640;23.380;2024-03-17T09:35:52;29.30;;;17.67;;
11807;SDS011;5961;42.640;23.380;2024-03-17T09:38:19;31.07;;;16.83;;
11807;SDS011;5961;42.640;23.380;2024-03-17T09:40:46;23.67;;;13.67;;
11807;SDS011;5961;42.640;23.380;2024-03-17T09:43:14;21.63;;;12.57;;
11807;SDS011;5961;42.640;23.380;2024-03-17T09:45:41;24.13;;;13.27;;
11807;SDS011;5961;42.640;23.380;2024-03-17T09:48:08;27.70;;;13.93;;
11807;SDS011;5961;42.640;23.380;2024-03-17T09:50:41;23.60;;;13.90;;
11807;SDS011;5961;42.640;23.380;2024-03-17T09:53:09;25.77;;;14.67;;
11807;SDS011;5961;42.640;23.380;2024-03-17T09:55:42;26.93;;;13.23;;
11807;SDS011;5961;42.640;23.380;2024-03-17T09:58:09;20.03;;;12.43;;
11807;SDS011;5961;42.640;23.380;2024-03-17T10:00:42;20.73;;;11.97;;
11807;SDS011;5961;42.640;23.380;2024-03-17T10:03:09;20.07;;;10.97;;
11807;SDS011;5961;42.640;23.380;2024-03-17T10:05:37;13.90;;;8.73;;
11807;SDS011;5961;42.640;23.380;2024-03-17T10:08:06;20.00;;;10.33;;
11807;SDS011;5961;42.640;23.380;2024-03-17T10:10:33;16.10;;;9.53;;
11807;SDS011;5961;42.640;23.380;2024-03-17T10:13:00;20.57;;;10.33;;
11807;SDS011;5961;42.640;23.380;2024-03-17T10:15:27;17.70;;;9.93;;
11807;SDS011;5961;42.640;23.380;2024-03-17T10:17:54;15.50;;;9.27;;
11807;SDS011;5961;42.640;23.380;2024-03-17T10:20:21;17.20;;;9.70;;
11807;SDS011;5961;42.640;23.380;2024-03-17T10:22:58;13.27;;;7.57;;
11807;SDS011;5961;42.640;23.380;2024-03-17T10:25:26;15.53;;;7.53;;
11807;SDS011;5961;42.640;23.380;2024-03-17T10:27:54;9.80;;;6.50;;
11807;SDS011;5961;42.640;23.380;2024-03-17T10:30:21;12.33;;;6.77;;
11807;SDS011;5961;42.640;23.380;2024-03-17T10:32:54;10.77;;;6.80;;
11807;SDS011;5961;42.640;23.380;2024-03-17T10:35:31;14.40;;;7.63;;
11807;SDS011;5961;42.640;23.380;2024-03-17T10:38:00;13.73;;;8.13;;
11807;SDS011;5961;42.640;23.380;2024-03-17T10:40:29;15.43;;;9.27;;
11807;SDS011;5961;42.640;23.380;2024-03-17T10:42:58;13.23;;;8.00;;
11807;SDS011;5961;42.640;23.380;2024-03-17T10:45:27;12.77;;;7.53;;
11807;SDS011;5961;42.640;23.380;2024-03-17T10:47:55;13.03;;;8.27;;
11807;SDS011;5961;42.640;23.380;2024-03-17T10:50:25;14.93;;;7.70;;
11807;SDS011;5961;42.640;23.380;2024-03-17T10:52:56;11.70;;;7.40;;
11807;SDS011;5961;42.640;23.380;2024-03-17T10:55:31;11.70;;;6.93;;
11807;SDS011;5961;42.640;23.380;2024-03-17T10:58:03;11.83;;;7.33;;
11807;SDS011;5961;42.640;23.380;2024-03-17T11:00:37;11.27;;;6.47;;
11807;SDS011;5961;42.640;23.380;2024-03-17T11:03:06;8.27;;;5.10;;
11807;SDS011;5961;42.640;23.380;2024-03-17T11:05:36;8.53;;;5.20;;
11807;SDS011;5961;42.640;23.380;2024-03-17T11:08:04;7.97;;;5.37;;
11807;SDS011;5961;42.640;23.380;2024-03-17T11:10:34;9.73;;;5.63;;
11807;SDS011;5961;42.640;23.380;2024-03-17T11:13:01;11.97;;;5.40;;
11807;SDS011;5961;42.640;23.380;2024-03-17T11:15:35;7.90;;;5.20;;
11807;SDS011;5961;42.640;23.380;2024-03-17T11:21:00;8.60;;;4.60;;
11807;SDS011;5961;42.640;23.380;2024-03-17T11:23:33;7.80;;;4.83;;
11807;SDS011;5961;42.640;23.380;2024-03-17T11:26:01;9.20;;;5.53;;
11807;SDS011;5961;42.640;23.380;2024-03-17T11:28:47;8.20;;;5.50;;
11807;SDS011;5961;42.640;23.380;2024-03-17T11:34:06;8.70;;;5.93;;
11807;SDS011;5961;42.640;23.380;2024-03-17T11:36:35;9.33;;;6.33;;
11807;SDS011;5961;42.640;23.380;2024-03-17T11:39:03;9.67;;;6.53;;
11807;SDS011;5961;42.640;23.380;2024-03-17T11:41:39;12.80;;;7.07;;
11807;SDS011;5961;42.640;23.380;2024-03-17T11:44:24;14.37;;;8.20;;
11807;SDS011;5961;42.640;23.380;2024-03-17T11:46:53;13.00;;;7.63;;
11807;SDS011;5961;42.640;23.380;2024-03-17T11:49:20;12.50;;;7.67;;
11807;SDS011;5961;42.640;23.380;2024-03-17T11:51:48;13.43;;;8.23;;
11807;SDS011;5961;42.640;23.380;2024-03-17T11:54:15;9.90;;;7.10;;
11807;SDS011;5961;42.640;23.380;2024-03-17T11:56:45;14.20;;;7.77;;
11807;SDS011;5961;42.640;23.380;2024-03-17T11:59:13;13.80;;;6.70;;
11807;SDS011;5961;42.640;23.380;2024-03-17T12:01:42;10.53;;;7.30;;
11807;SDS011;5961;42.640;23.380;2024-03-17T12:04:08;9.97;;;6.70;;
11807;SDS011;5961;42.640;23.380;2024-03-17T12:06:36;10.87;;;6.17;;
11807;SDS011;5961;42.640;23.380;2024-03-17T12:09:08;8.57;;;6.03;;
11807;SDS011;5961;42.640;23.380;2024-03-17T12:11:36;10.20;;;6.40;;
11807;SDS011;5961;42.640;23.380;2024-03-17T12:16:55;11.33;;;6.53;;
11807;SDS011;5961;42.640;23.380;2024-03-17T12:19:22;9.67;;;6.07;;
11807;SDS011;5961;42.640;23.380;2024-03-17T12:21:49;11.60;;;6.20;;
11807;SDS011;5961;42.640;23.380;2024-03-17T12:24:17;13.77;;;6.57;;
11807;SDS011;5961;42.640;23.380;2024-03-17T12:26:45;9.30;;;6.20;;
11807;SDS011;5961;42.640;23.380;2024-03-17T12:29:21;10.40;;;6.77;;
11807;SDS011;5961;42.640;23.380;2024-03-17T12:31:51;10.57;;;6.67;;
11807;SDS011;5961;42.640;23.380;2024-03-17T12:34:18;11.10;;;6.70;;
11807;SDS011;5961;42.640;23.380;2024-03-17T12:36:44;9.47;;;6.47;;
11807;SDS011;5961;42.640;23.380;2024-03-17T12:39:15;8.93;;;6.20;;
11807;SDS011;5961;42.640;23.380;2024-03-17T12:41:43;11.87;;;6.60;;
11807;SDS011;5961;42.640;23.380;2024-03-17T12:44:19;11.63;;;6.87;;
11807;SDS011;5961;42.640;23.380;2024-03-17T12:46:46;10.47;;;6.73;;
11807;SDS011;5961;42.640;23.380;2024-03-17T12:49:15;10.77;;;6.67;;
11807;SDS011;5961;42.640;23.380;2024-03-17T12:51:41;11.60;;;6.60;;
11807;SDS011;5961;42.640;23.380;2024-03-17T12:54:14;11.00;;;6.43;;
11807;SDS011;5961;42.640;23.380;2024-03-17T12:56:40;11.10;;;6.77;;
11807;SDS011;5961;42.640;23.380;2024-03-17T12:59:23;9.07;;;6.20;;
11807;SDS011;5961;42.640;23.380;2024-03-17T13:02:08;10.60;;;6.83;;
11807;SDS011;5961;42.640;23.380;2024-03-17T13:04:39;9.77;;;6.83;;
11807;SDS011;5961;42.640;23.380;2024-03-17T13:07:09;11.20;;;7.03;;
11807;SDS011;5961;42.640;23.380;2024-03-17T13:09:36;12.53;;;7.03;;
11807;SDS011;5961;42.640;23.380;2024-03-17T13:12:11;12.93;;;7.93;;
11807;SDS011;5961;42.640;23.380;2024-03-17T13:14:41;13.60;;;7.60;;
11807;SDS011;5961;42.640;23.380;2024-03-17T13:17:08;10.57;;;7.40;;
11807;SDS011;5961;42.640;23.380;2024-03-17T13:19:46;12.83;;;7.70;;
11807;SDS011;5961;42.640;23.380;2024-03-17T13:22:13;14.53;;;8.33;;
11807;SDS011;5961;42.640;23.380;2024-03-17T13:24:40;12.73;;;8.13;;
11807;SDS011;5961;42.640;23.380;2024-03-17T13:27:06;12.10;;;7.87;;
11807;SDS011;5961;42.640;23.380;2024-03-17T13:29:33;12.70;;;8.43;;
11807;SDS011;5961;42.640;23.380;2024-03-17T13:32:02;15.63;;;9.63;;
11807;SDS011;5961;42.640;23.380;2024-03-17T13:34:29;13.70;;;8.70;;
11807;SDS011;5961;42.640;23.380;2024-03-17T13:36:58;14.57;;;9.23;;
11807;SDS011;5961;42.640;23.380;2024-03-17T13:39:28;15.20;;;8.77;;
11807;SDS011;5961;42.640;23.380;2024-03-17T13:41:56;14.87;;;8.77;;
11807;SDS011;5961;42.640;23.380;2024-03-17T13:44:27;15.47;;;9.50;;
11807;SDS011;5961;42.640;23.380;2024-03-17T13:46:54;15.83;;;9.67;;
11807;SDS011;5961;42.640;23.380;2024-03-17T13:49:21;17.93;;;9.53;;
11807;SDS011;5961;42.640;23.380;2024-03-17T13:51:48;17.60;;;9.80;;
11807;SDS011;5961;42.640;23.380;2024-03-17T13:54:16;15.70;;;9.50;;
11807;SDS011;5961;42.640;23.380;2024-03-17T13:56:46;17.03;;;9.43;;
11807;SDS011;5961;42.640;23.380;2024-03-17T13:59:13;16.27;;;9.67;;
11807;SDS011;5961;42.640;23.380;2024-03-17T14:01:39;16.07;;;9.07;;
11807;SDS011;5961;42.640;23.380;2024-03-17T14:04:07;15.63;;;9.27;;
11807;SDS011;5961;42.640;23.380;2024-03-17T14:06:36;16.80;;;9.97;;
11807;SDS011;5961;42.640;23.380;2024-03-17T14:09:02;17.73;;;9.87;;
11807;SDS011;5961;42.640;23.380;2024-03-17T14:11:32;17.07;;;9.83;;
11807;SDS011;5961;42.640;23.380;2024-03-17T14:13:59;16.37;;;10.00;;
11807;SDS011;5961;42.640;23.380;2024-03-17T14:16:25;16.90;;;10.53;;
11807;SDS011;5961;42.640;23.380;2024-03-17T14:18:53;17.47;;;9.73;;
11807;SDS011;5961;42.640;23.380;2024-03-17T14:21:19;16.93;;;10.73;;
11807;SDS011;5961;42.640;23.380;2024-03-17T14:23:46;14.80;;;9.93;;
11807;SDS011;5961;42.640;23.380;2024-03-17T14:26:13;15.80;;;9.43;;
11807;SDS011;5961;42.640;23.380;2024-03-17T14:28:41;17.57;;;10.43;;
11807;SDS011;5961;42.640;23.380;2024-03-17T14:31:07;18.03;;;10.07;;
11807;SDS011;5961;42.640;23.380;2024-03-17T14:33:34;16.07;;;10.33;;
11807;SDS011;5961;42.640;23.380;2024-03-17T14:36:01;17.37;;;10.23;;
11807;SDS011;5961;42.640;23.380;2024-03-17T14:38:27;20.87;;;10.53;;